sensor_id;sensor_type;location;lat;lon;timestamp;P1;durP1;ratioP1;P2;durP2;ratioP2
14040;SDS011;7095;51.388;6.196;2022-11-15T00:00:14;22.07;;;14.93;;
14040;SDS011;7095;51.388;6.196;2022-11-15T00:03:01;22.27;;;14.80;;
14040;SDS011;7095;51.388;6.196;2022-11-15T00:05:50;19.97;;;14.50;;
14040;SDS011;7095;51.388;6.196;2022-11-15T00:08:38;22.47;;;14.60;;
14040;SDS011;7095;51.388;6.196;2022-11-15T00:11:25;21.93;;;14.77;;
14040;SDS011;7095;51.388;6.196;2022-11-15T00:14:14;21.07;;;13.87;;
14040;SDS011;7095;51.388;6.196;2022-11-15T00:17:01;22.27;;;14.40;;
14040;SDS011;7095;51.388;6.196;2022-11-15T00:19:48;22.00;;;16.03;;
14040;SDS011;7095;51.388;6.196;2022-11-15T00:22:36;24.37;;;14.67;;
14040;SDS011;7095;51.388;6.196;2022-11-15T00:25:23;16.77;;;13.03;;
14040;SDS011;7095;51.388;6.196;2022-11-15T00:28:11;21.07;;;15.00;;
14040;SDS011;7095;51.388;6.196;2022-11-15T00:31:01;22.43;;;14.63;;
14040;SDS011;7095;51.388;6.196;2022-11-15T00:33:48;18.03;;;14.23;;
14040;SDS011;7095;51.388;6.196;2022-11-15T00:36:36;19.17;;;13.97;;
14040;SDS011;7095;51.388;6.196;2022-11-15T00:39:23;18.63;;;15.10;;
14040;SDS011;7095;51.388;6.196;2022-11-15T00:42:10;20.73;;;14.03;;
14040;SDS011;7095;51.388;6.196;2022-11-15T00:44:58;20.20;;;13.40;;
14040;SDS011;7095;51.388;6.196;2022-11-15T00:47:46;21.20;;;14.60;;
14040;SDS011;7095;51.388;6.196;2022-11-15T00:50:34;22.27;;;14.87;;
14040;SDS011;7095;51.388;6.196;2022-11-15T00:53:21;21.90;;;13.17;;
14040;SDS011;7095;51.388;6.196;2022-11-15T00:56:08;21.73;;;14.17;;
14040;SDS011;7095;51.388;6.196;2022-11-15T00:58:57;21.43;;;14.83;;
14040;SDS011;7095;51.388;6.196;2022-11-15T01:01:44;20.93;;;13.73;;
14040;SDS011;7095;51.388;6.196;2022-11-15T01:04:32;19.60;;;14.10;;
14040;SDS011;7095;51.388;6.196;2022-11-15T01:07:20;21.53;;;14.80;;
14040;SDS011;7095;51.388;6.196;2022-11-15T01:10:08;19.73;;;14.80;;
14040;SDS011;7095;51.388;6.196;2022-11-15T01:12:55;20.70;;;14.53;;
14040;SDS011;7095;51.388;6.196;2022-11-15T01:15:43;23.27;;;13.70;;
14040;SDS011;7095;51.388;6.196;2022-11-15T01:18:30;29.73;;;15.33;;
14040;SDS011;7095;51.388;6.196;2022-11-15T01:21:19;22.60;;;15.00;;
14040;SDS011;7095;51.388;6.196;2022-11-15T01:24:08;18.47;;;13.00;;
14040;SDS011;7095;51.388;6.196;2022-11-15T01:26:59;24.33;;;14.50;;
14040;SDS011;7095;51.388;6.196;2022-11-15T01:29:46;20.30;;;15.70;;
14040;SDS011;7095;51.388;6.196;2022-11-15T01:32:34;20.03;;;13.57;;
14040;SDS011;7095;51.388;6.196;2022-11-15T01:35:21;21.77;;;14.27;;
14040;SDS011;7095;51.388;6.196;2022-11-15T01:38:09;22.30;;;14.77;;
14040;SDS011;7095;51.388;6.196;2022-11-15T01:40:57;22.07;;;15.63;;
14040;SDS011;7095;51.388;6.196;2022-11-15T01:43:44;22.03;;;14.97;;
14040;SDS011;7095;51.388;6.196;2022-11-15T01:46:33;21.23;;;14.03;;
14040;SDS011;7095;51.388;6.196;2022-11-15T01:49:22;21.37;;;14.57;;
14040;SDS011;7095;51.388;6.196;2022-11-15T01:52:12;18.97;;;14.37;;
14040;SDS011;7095;51.388;6.196;2022-11-15T01:55:05;21.37;;;14.73;;
14040;SDS011;7095;51.388;6.196;2022-11-15T01:57:56;19.20;;;14.37;;
14040;SDS011;7095;51.388;6.196;2022-11-15T02:00:46;21.43;;;13.87;;
14040;SDS011;7095;51.388;6.196;2022-11-15T02:03:36;23.23;;;15.33;;
14040;SDS011;7095;51.388;6.196;2022-11-15T02:06:28;21.33;;;14.13;;
14040;SDS011;7095;51.388;6.196;2022-11-15T02:09:15;19.67;;;13.70;;
14040;SDS011;7095;51.388;6.196;2022-11-15T02:12:05;20.60;;;14.83;;
14040;SDS011;7095;51.388;6.196;2022-11-15T02:14:53;18.73;;;14.30;;
14040;SDS011;7095;51.388;6.196;2022-11-15T02:17:48;21.67;;;14.57;;
14040;SDS011;7095;51.388;6.196;2022-11-15T02:20:52;20.03;;;14.40;;
14040;SDS011;7095;51.388;6.196;2022-11-15T02:23:56;19.10;;;13.80;;
14040;SDS011;7095;51.388;6.196;2022-11-15T02:30:33;23.20;;;13.83;;
14040;SDS011;7095;51.388;6.196;2022-11-15T02:33:33;22.10;;;14.33;;
14040;SDS011;7095;51.388;6.196;2022-11-15T02:36:31;18.93;;;14.00;;
14040;SDS011;7095;51.388;6.196;2022-11-15T02:39:26;20.00;;;14.00;;
14040;SDS011;7095;51.388;6.196;2022-11-15T02:42:23;20.30;;;13.90;;
14040;SDS011;7095;51.388;6.196;2022-11-15T02:45:31;22.03;;;14.40;;
14040;SDS011;7095;51.388;6.196;2022-11-15T02:48:23;19.73;;;13.87;;
14040;SDS011;7095;51.388;6.196;2022-11-15T02:51:12;20.17;;;13.27;;
14040;SDS011;7095;51.388;6.196;2022-11-15T02:54:02;21.33;;;14.27;;
14040;SDS011;7095;51.388;6.196;2022-11-15T02:56:50;21.80;;;14.63;;
14040;SDS011;7095;51.388;6.196;2022-11-15T02:59:45;19.53;;;13.40;;
14040;SDS011;7095;51.388;6.196;2022-11-15T03:06:02;18.73;;;13.90;;
14040;SDS011;7095;51.388;6.196;2022-11-15T03:09:02;22.47;;;13.27;;
14040;SDS011;7095;51.388;6.196;2022-11-15T03:11:56;19.40;;;13.43;;
14040;SDS011;7095;51.388;6.196;2022-11-15T03:14:51;16.10;;;12.10;;
14040;SDS011;7095;51.388;6.196;2022-11-15T03:17:46;18.93;;;12.80;;
14040;SDS011;7095;51.388;6.196;2022-11-15T03:20:42;19.20;;;13.60;;
14040;SDS011;7095;51.388;6.196;2022-11-15T03:23:30;15.67;;;11.90;;
14040;SDS011;7095;51.388;6.196;2022-11-15T03:26:19;17.40;;;13.53;;
14040;SDS011;7095;51.388;6.196;2022-11-15T03:29:11;20.73;;;13.07;;
14040;SDS011;7095;51.388;6.196;2022-11-15T03:32:02;17.40;;;12.80;;
14040;SDS011;7095;51.388;6.196;2022-11-15T03:34:53;18.00;;;12.87;;
14040;SDS011;7095;51.388;6.196;2022-11-15T03:37:48;18.23;;;13.43;;
14040;SDS011;7095;51.388;6.196;2022-11-15T03:40:41;21.60;;;13.77;;
14040;SDS011;7095;51.388;6.196;2022-11-15T03:43:33;21.93;;;13.30;;
14040;SDS011;7095;51.388;6.196;2022-11-15T03:46:27;22.17;;;14.03;;
14040;SDS011;7095;51.388;6.196;2022-11-15T03:49:20;20.13;;;12.87;;
14040;SDS011;7095;51.388;6.196;2022-11-15T03:52:12;17.70;;;13.17;;
14040;SDS011;7095;51.388;6.196;2022-11-15T03:55:06;19.17;;;14.13;;
14040;SDS011;7095;51.388;6.196;2022-11-15T03:57:56;19.10;;;14.57;;
14040;SDS011;7095;51.388;6.196;2022-11-15T04:00:45;22.93;;;15.27;;
14040;SDS011;7095;51.388;6.196;2022-11-15T04:03:32;18.90;;;14.03;;
14040;SDS011;7095;51.388;6.196;2022-11-15T04:06:19;22.97;;;13.77;;
14040;SDS011;7095;51.388;6.196;2022-11-15T04:09:06;21.03;;;14.70;;
14040;SDS011;7095;51.388;6.196;2022-11-15T04:11:55;25.10;;;13.87;;
14040;SDS011;7095;51.388;6.196;2022-11-15T04:14:44;27.00;;;15.43;;
14040;SDS011;7095;51.388;6.196;2022-11-15T04:17:51;18.93;;;14.13;;
14040;SDS011;7095;51.388;6.196;2022-11-15T04:20:40;21.70;;;13.83;;
14040;SDS011;7095;51.388;6.196;2022-11-15T04:23:44;20.13;;;13.93;;
14040;SDS011;7095;51.388;6.196;2022-11-15T04:26:45;18.27;;;13.80;;
14040;SDS011;7095;51.388;6.196;2022-11-15T04:29:34;23.13;;;13.47;;
14040;SDS011;7095;51.388;6.196;2022-11-15T04:32:21;21.47;;;14.17;;
14040;SDS011;7095;51.388;6.196;2022-11-15T04:35:08;21.17;;;13.40;;
14040;SDS011;7095;51.388;6.196;2022-11-15T04:37:56;19.20;;;14.10;;
14040;SDS011;7095;51.388;6.196;2022-11-15T04:40:44;19.73;;;13.60;;
14040;SDS011;7095;51.388;6.196;2022-11-15T04:43:31;22.00;;;14.23;;
14040;SDS011;7095;51.388;6.196;2022-11-15T04:46:20;27.17;;;15.03;;
14040;SDS011;7095;51.388;6.196;2022-11-15T04:49:07;19.63;;;13.43;;
14040;SDS011;7095;51.388;6.196;2022-11-15T04:51:54;23.33;;;13.93;;
14040;SDS011;7095;51.388;6.196;2022-11-15T04:54:41;23.57;;;14.10;;
14040;SDS011;7095;51.388;6.196;2022-11-15T04:57:28;23.07;;;13.90;;
14040;SDS011;7095;51.388;6.196;2022-11-15T05:00:16;22.83;;;14.17;;
14040;SDS011;7095;51.388;6.196;2022-11-15T05:03:05;21.57;;;13.80;;
14040;SDS011;7095;51.388;6.196;2022-11-15T05:06:09;17.40;;;13.47;;
14040;SDS011;7095;51.388;6.196;2022-11-15T05:08:56;20.33;;;13.57;;
14040;SDS011;7095;51.388;6.196;2022-11-15T05:11:43;25.37;;;15.23;;
14040;SDS011;7095;51.388;6.196;2022-11-15T05:14:31;23.30;;;14.20;;
14040;SDS011;7095;51.388;6.196;2022-11-15T05:17:19;23.10;;;14.77;;
14040;SDS011;7095;51.388;6.196;2022-11-15T05:20:08;22.23;;;14.37;;
14040;SDS011;7095;51.388;6.196;2022-11-15T05:22:58;21.77;;;14.27;;
14040;SDS011;7095;51.388;6.196;2022-11-15T05:25:45;20.83;;;14.80;;
14040;SDS011;7095;51.388;6.196;2022-11-15T05:28:33;19.63;;;13.70;;
14040;SDS011;7095;51.388;6.196;2022-11-15T05:31:20;21.97;;;14.17;;
14040;SDS011;7095;51.388;6.196;2022-11-15T05:34:08;19.37;;;14.10;;
14040;SDS011;7095;51.388;6.196;2022-11-15T05:36:57;19.60;;;14.20;;
14040;SDS011;7095;51.388;6.196;2022-11-15T05:39:46;21.30;;;14.20;;
14040;SDS011;7095;51.388;6.196;2022-11-15T05:42:33;19.23;;;13.90;;
14040;SDS011;7095;51.388;6.196;2022-11-15T05:45:20;26.87;;;14.50;;
14040;SDS011;7095;51.388;6.196;2022-11-15T05:48:11;20.60;;;13.33;;
14040;SDS011;7095;51.388;6.196;2022-11-15T05:51:00;23.77;;;14.20;;
14040;SDS011;7095;51.388;6.196;2022-11-15T05:53:51;22.27;;;13.77;;
14040;SDS011;7095;51.388;6.196;2022-11-15T05:56:40;24.27;;;15.13;;
14040;SDS011;7095;51.388;6.196;2022-11-15T05:59:28;22.90;;;14.83;;
14040;SDS011;7095;51.388;6.196;2022-11-15T06:02:16;21.87;;;14.23;;
14040;SDS011;7095;51.388;6.196;2022-11-15T06:05:04;21.00;;;14.37;;
14040;SDS011;7095;51.388;6.196;2022-11-15T06:07:52;20.90;;;14.07;;
14040;SDS011;7095;51.388;6.196;2022-11-15T06:10:41;24.17;;;14.03;;
14040;SDS011;7095;51.388;6.196;2022-11-15T06:13:29;26.10;;;14.00;;
14040;SDS011;7095;51.388;6.196;2022-11-15T06:16:17;20.60;;;14.90;;
14040;SDS011;7095;51.388;6.196;2022-11-15T06:19:05;20.40;;;14.20;;
14040;SDS011;7095;51.388;6.196;2022-11-15T06:21:53;19.93;;;13.93;;
14040;SDS011;7095;51.388;6.196;2022-11-15T06:24:40;20.87;;;13.03;;
14040;SDS011;7095;51.388;6.196;2022-11-15T06:27:30;20.47;;;13.47;;
14040;SDS011;7095;51.388;6.196;2022-11-15T06:30:18;18.27;;;11.80;;
14040;SDS011;7095;51.388;6.196;2022-11-15T06:33:05;18.57;;;11.87;;
14040;SDS011;7095;51.388;6.196;2022-11-15T06:35:54;18.70;;;12.87;;
14040;SDS011;7095;51.388;6.196;2022-11-15T06:38:42;16.87;;;12.27;;
14040;SDS011;7095;51.388;6.196;2022-11-15T06:41:30;18.53;;;12.27;;
14040;SDS011;7095;51.388;6.196;2022-11-15T06:44:21;15.40;;;11.63;;
14040;SDS011;7095;51.388;6.196;2022-11-15T06:47:09;18.03;;;12.50;;
14040;SDS011;7095;51.388;6.196;2022-11-15T06:49:56;16.70;;;11.10;;
14040;SDS011;7095;51.388;6.196;2022-11-15T06:52:43;16.23;;;11.73;;
14040;SDS011;7095;51.388;6.196;2022-11-15T06:55:31;16.37;;;12.00;;
14040;SDS011;7095;51.388;6.196;2022-11-15T06:58:20;16.10;;;11.00;;
14040;SDS011;7095;51.388;6.196;2022-11-15T07:01:10;12.97;;;9.50;;
14040;SDS011;7095;51.388;6.196;2022-11-15T07:03:58;16.70;;;11.07;;
14040;SDS011;7095;51.388;6.196;2022-11-15T07:06:46;17.30;;;11.00;;
14040;SDS011;7095;51.388;6.196;2022-11-15T07:09:34;12.67;;;9.60;;
14040;SDS011;7095;51.388;6.196;2022-11-15T07:12:21;17.73;;;10.53;;
14040;SDS011;7095;51.388;6.196;2022-11-15T07:15:09;15.77;;;9.40;;
14040;SDS011;7095;51.388;6.196;2022-11-15T07:18:01;14.73;;;9.83;;
14040;SDS011;7095;51.388;6.196;2022-11-15T07:20:49;13.40;;;8.47;;
14040;SDS011;7095;51.388;6.196;2022-11-15T07:23:36;12.50;;;8.33;;
14040;SDS011;7095;51.388;6.196;2022-11-15T07:26:24;10.03;;;7.27;;
14040;SDS011;7095;51.388;6.196;2022-11-15T07:29:12;12.50;;;7.67;;
14040;SDS011;7095;51.388;6.196;2022-11-15T07:31:59;9.87;;;6.73;;
14040;SDS011;7095;51.388;6.196;2022-11-15T07:34:47;11.70;;;7.33;;
14040;SDS011;7095;51.388;6.196;2022-11-15T07:37:35;11.87;;;6.93;;
14040;SDS011;7095;51.388;6.196;2022-11-15T07:40:23;9.60;;;6.77;;
14040;SDS011;7095;51.388;6.196;2022-11-15T07:43:10;6.23;;;5.63;;
14040;SDS011;7095;51.388;6.196;2022-11-15T07:45:58;7.93;;;6.07;;
14040;SDS011;7095;51.388;6.196;2022-11-15T07:48:50;5.63;;;4.87;;
14040;SDS011;7095;51.388;6.196;2022-11-15T07:51:38;8.77;;;5.13;;
14040;SDS011;7095;51.388;6.196;2022-11-15T07:54:25;7.07;;;4.47;;
14040;SDS011;7095;51.388;6.196;2022-11-15T07:57:13;7.63;;;5.13;;
14040;SDS011;7095;51.388;6.196;2022-11-15T08:00:00;9.37;;;4.73;;
14040;SDS011;7095;51.388;6.196;2022-11-15T08:02:48;7.27;;;4.60;;
14040;SDS011;7095;51.388;6.196;2022-11-15T08:05:36;7.27;;;4.47;;
14040;SDS011;7095;51.388;6.196;2022-11-15T08:08:25;7.27;;;4.73;;
14040;SDS011;7095;51.388;6.196;2022-11-15T08:11:12;7.77;;;4.50;;
14040;SDS011;7095;51.388;6.196;2022-11-15T08:13:59;7.60;;;4.67;;
14040;SDS011;7095;51.388;6.196;2022-11-15T08:16:47;13.70;;;5.47;;
14040;SDS011;7095;51.388;6.196;2022-11-15T08:19:34;9.60;;;5.17;;
14040;SDS011;7095;51.388;6.196;2022-11-15T08:22:21;10.20;;;5.90;;
14040;SDS011;7095;51.388;6.196;2022-11-15T08:25:10;8.10;;;5.77;;
14040;SDS011;7095;51.388;6.196;2022-11-15T08:27:59;8.93;;;5.33;;
14040;SDS011;7095;51.388;6.196;2022-11-15T08:30:47;8.53;;;5.43;;
14040;SDS011;7095;51.388;6.196;2022-11-15T08:33:35;12.83;;;5.73;;
14040;SDS011;7095;51.388;6.196;2022-11-15T08:36:22;8.03;;;5.73;;
14040;SDS011;7095;51.388;6.196;2022-11-15T08:39:10;8.00;;;5.07;;
14040;SDS011;7095;51.388;6.196;2022-11-15T08:41:58;8.73;;;5.40;;
14040;SDS011;7095;51.388;6.196;2022-11-15T08:44:46;9.53;;;4.63;;
14040;SDS011;7095;51.388;6.196;2022-11-15T08:47:33;5.63;;;4.13;;
14040;SDS011;7095;51.388;6.196;2022-11-15T08:50:21;6.23;;;4.30;;
14040;SDS011;7095;51.388;6.196;2022-11-15T08:53:08;6.63;;;4.20;;
14040;SDS011;7095;51.388;6.196;2022-11-15T08:55:55;5.57;;;3.90;;
14040;SDS011;7095;51.388;6.196;2022-11-15T08:58:44;7.83;;;3.43;;
14040;SDS011;7095;51.388;6.196;2022-11-15T09:01:32;10.73;;;3.90;;
14040;SDS011;7095;51.388;6.196;2022-11-15T09:04:19;4.17;;;3.40;;
14040;SDS011;7095;51.388;6.196;2022-11-15T09:07:07;4.77;;;3.57;;
14040;SDS011;7095;51.388;6.196;2022-11-15T09:09:55;6.67;;;3.20;;
14040;SDS011;7095;51.388;6.196;2022-11-15T09:12:42;5.93;;;3.03;;
14040;SDS011;7095;51.388;6.196;2022-11-15T09:15:30;4.57;;;2.87;;
14040;SDS011;7095;51.388;6.196;2022-11-15T09:18:18;7.87;;;2.87;;
14040;SDS011;7095;51.388;6.196;2022-11-15T09:21:07;6.37;;;2.77;;
14040;SDS011;7095;51.388;6.196;2022-11-15T09:23:56;3.20;;;2.53;;
14040;SDS011;7095;51.388;6.196;2022-11-15T09:26:44;3.90;;;1.97;;
14040;SDS011;7095;51.388;6.196;2022-11-15T09:29:31;2.73;;;1.60;;
14040;SDS011;7095;51.388;6.196;2022-11-15T09:32:21;2.90;;;1.63;;
14040;SDS011;7095;51.388;6.196;2022-11-15T09:35:08;8.07;;;1.70;;
14040;SDS011;7095;51.388;6.196;2022-11-15T09:37:57;3.93;;;1.93;;
14040;SDS011;7095;51.388;6.196;2022-11-15T09:40:44;5.27;;;1.53;;
14040;SDS011;7095;51.388;6.196;2022-11-15T09:43:39;4.63;;;1.00;;
14040;SDS011;7095;51.388;6.196;2022-11-15T09:46:37;6.63;;;1.30;;
14040;SDS011;7095;51.388;6.196;2022-11-15T09:49:34;5.10;;;1.43;;
14040;SDS011;7095;51.388;6.196;2022-11-15T09:52:17;1.93;;;1.10;;
14040;SDS011;7095;51.388;6.196;2022-11-15T09:54:47;3.40;;;1.37;;
14040;SDS011;7095;51.388;6.196;2022-11-15T09:57:21;5.13;;;1.50;;
14040;SDS011;7095;51.388;6.196;2022-11-15T10:00:02;2.07;;;1.10;;
14040;SDS011;7095;51.388;6.196;2022-11-15T10:03:06;6.67;;;1.10;;
14040;SDS011;7095;51.388;6.196;2022-11-15T10:05:40;3.40;;;0.97;;
14040;SDS011;7095;51.388;6.196;2022-11-15T10:08:13;5.83;;;1.30;;
14040;SDS011;7095;51.388;6.196;2022-11-15T10:10:55;6.27;;;1.43;;
14040;SDS011;7095;51.388;6.196;2022-11-15T10:13:45;3.30;;;0.90;;
14040;SDS011;7095;51.388;6.196;2022-11-15T10:16:21;2.07;;;1.17;;
14040;SDS011;7095;51.388;6.196;2022-11-15T10:19:12;2.47;;;1.20;;
14040;SDS011;7095;51.388;6.196;2022-11-15T10:21:53;3.97;;;1.37;;
14040;SDS011;7095;51.388;6.196;2022-11-15T10:24:30;1.87;;;1.00;;
14040;SDS011;7095;51.388;6.196;2022-11-15T10:27:07;4.13;;;1.33;;
14040;SDS011;7095;51.388;6.196;2022-11-15T10:29:42;4.63;;;1.73;;
14040;SDS011;7095;51.388;6.196;2022-11-15T10:32:12;4.77;;;1.17;;
14040;SDS011;7095;51.388;6.196;2022-11-15T10:34:43;6.20;;;0.90;;
14040;SDS011;7095;51.388;6.196;2022-11-15T10:37:13;3.47;;;1.37;;
14040;SDS011;7095;51.388;6.196;2022-11-15T10:39:42;3.13;;;1.33;;
14040;SDS011;7095;51.388;6.196;2022-11-15T10:42:16;2.17;;;1.03;;
14040;SDS011;7095;51.388;6.196;2022-11-15T10:44:46;2.63;;;1.30;;
14040;SDS011;7095;51.388;6.196;2022-11-15T10:47:26;4.20;;;1.77;;
14040;SDS011;7095;51.388;6.196;2022-11-15T10:50:05;2.83;;;1.30;;
14040;SDS011;7095;51.388;6.196;2022-11-15T10:52:54;2.70;;;1.10;;
14040;SDS011;7095;51.388;6.196;2022-11-15T10:55:24;3.50;;;0.87;;
14040;SDS011;7095;51.388;6.196;2022-11-15T10:57:57;3.67;;;1.00;;
14040;SDS011;7095;51.388;6.196;2022-11-15T11:00:32;2.23;;;1.10;;
14040;SDS011;7095;51.388;6.196;2022-11-15T11:03:04;3.23;;;0.83;;
14040;SDS011;7095;51.388;6.196;2022-11-15T11:05:35;5.40;;;1.27;;
14040;SDS011;7095;51.388;6.196;2022-11-15T11:08:23;2.60;;;1.50;;
14040;SDS011;7095;51.388;6.196;2022-11-15T11:10:53;6.60;;;1.63;;
14040;SDS011;7095;51.388;6.196;2022-11-15T11:13:28;5.23;;;1.93;;
14040;SDS011;7095;51.388;6.196;2022-11-15T11:16:03;7.27;;;1.90;;
14040;SDS011;7095;51.388;6.196;2022-11-15T11:18:47;6.80;;;1.57;;
14040;SDS011;7095;51.388;6.196;2022-11-15T11:21:22;2.33;;;1.20;;
14040;SDS011;7095;51.388;6.196;2022-11-15T11:24:08;5.53;;;1.13;;
14040;SDS011;7095;51.388;6.196;2022-11-15T11:26:45;3.33;;;1.20;;
14040;SDS011;7095;51.388;6.196;2022-11-15T11:29:27;3.07;;;0.90;;
14040;SDS011;7095;51.388;6.196;2022-11-15T11:32:07;3.53;;;1.70;;
14040;SDS011;7095;51.388;6.196;2022-11-15T11:34:50;6.30;;;1.40;;
14040;SDS011;7095;51.388;6.196;2022-11-15T11:37:33;4.03;;;1.30;;
14040;SDS011;7095;51.388;6.196;2022-11-15T11:40:13;5.53;;;1.00;;
14040;SDS011;7095;51.388;6.196;2022-11-15T11:42:52;1.87;;;1.03;;
14040;SDS011;7095;51.388;6.196;2022-11-15T11:45:31;4.67;;;1.03;;
14040;SDS011;7095;51.388;6.196;2022-11-15T11:48:13;2.10;;;1.00;;
14040;SDS011;7095;51.388;6.196;2022-11-15T11:50:48;5.50;;;1.40;;
14040;SDS011;7095;51.388;6.196;2022-11-15T11:53:21;2.20;;;1.17;;
14040;SDS011;7095;51.388;6.196;2022-11-15T11:55:57;3.53;;;1.40;;
14040;SDS011;7095;51.388;6.196;2022-11-15T11:58:33;3.90;;;1.20;;
14040;SDS011;7095;51.388;6.196;2022-11-15T12:03:53;3.83;;;0.70;;
14040;SDS011;7095;51.388;6.196;2022-11-15T12:06:27;2.63;;;0.97;;
14040;SDS011;7095;51.388;6.196;2022-11-15T12:09:01;0.90;;;0.70;;
14040;SDS011;7095;51.388;6.196;2022-11-15T12:11:38;3.47;;;1.20;;
14040;SDS011;7095;51.388;6.196;2022-11-15T12:14:22;4.33;;;1.33;;
14040;SDS011;7095;51.388;6.196;2022-11-15T12:16:55;4.20;;;0.80;;
14040;SDS011;7095;51.388;6.196;2022-11-15T12:19:25;3.17;;;1.40;;
14040;SDS011;7095;51.388;6.196;2022-11-15T12:21:57;2.20;;;0.67;;
14040;SDS011;7095;51.388;6.196;2022-11-15T12:24:33;3.27;;;0.80;;
14040;SDS011;7095;51.388;6.196;2022-11-15T12:27:19;0.90;;;0.70;;
14040;SDS011;7095;51.388;6.196;2022-11-15T12:29:56;2.87;;;0.87;;
14040;SDS011;7095;51.388;6.196;2022-11-15T12:32:30;3.23;;;0.77;;
14040;SDS011;7095;51.388;6.196;2022-11-15T12:35:02;5.30;;;1.27;;
14040;SDS011;7095;51.388;6.196;2022-11-15T12:37:34;2.27;;;0.70;;
14040;SDS011;7095;51.388;6.196;2022-11-15T12:40:23;2.37;;;0.87;;
14040;SDS011;7095;51.388;6.196;2022-11-15T12:46:03;6.70;;;1.20;;
14040;SDS011;7095;51.388;6.196;2022-11-15T12:54:55;4.57;;;0.93;;
14040;SDS011;7095;51.388;6.196;2022-11-15T12:57:30;2.63;;;1.00;;
14040;SDS011;7095;51.388;6.196;2022-11-15T13:00:01;4.13;;;1.23;;
14040;SDS011;7095;51.388;6.196;2022-11-15T13:02:36;3.30;;;0.90;;
14040;SDS011;7095;51.388;6.196;2022-11-15T13:08:40;1.73;;;0.70;;
14040;SDS011;7095;51.388;6.196;2022-11-15T13:17:17;3.17;;;1.03;;
14040;SDS011;7095;51.388;6.196;2022-11-15T13:19:57;2.13;;;0.90;;
14040;SDS011;7095;51.388;6.196;2022-11-15T13:22:38;1.70;;;0.90;;
14040;SDS011;7095;51.388;6.196;2022-11-15T13:25:43;2.57;;;0.70;;
14040;SDS011;7095;51.388;6.196;2022-11-15T13:28:27;3.83;;;1.30;;
14040;SDS011;7095;51.388;6.196;2022-11-15T13:31:01;2.57;;;0.80;;
14040;SDS011;7095;51.388;6.196;2022-11-15T13:33:42;6.97;;;1.67;;
14040;SDS011;7095;51.388;6.196;2022-11-15T13:36:14;2.83;;;1.03;;
14040;SDS011;7095;51.388;6.196;2022-11-15T13:38:53;4.37;;;1.00;;
14040;SDS011;7095;51.388;6.196;2022-11-15T13:41:25;2.47;;;0.77;;
14040;SDS011;7095;51.388;6.196;2022-11-15T13:43:55;6.57;;;0.97;;
14040;SDS011;7095;51.388;6.196;2022-11-15T13:46:25;2.90;;;0.87;;
14040;SDS011;7095;51.388;6.196;2022-11-15T13:48:56;5.63;;;1.50;;
14040;SDS011;7095;51.388;6.196;2022-11-15T13:51:30;5.40;;;0.93;;
14040;SDS011;7095;51.388;6.196;2022-11-15T13:54:07;4.80;;;1.30;;
14040;SDS011;7095;51.388;6.196;2022-11-15T13:56:45;3.07;;;1.20;;
14040;SDS011;7095;51.388;6.196;2022-11-15T13:59:18;7.80;;;1.40;;
14040;SDS011;7095;51.388;6.196;2022-11-15T14:01:52;3.57;;;1.00;;
14040;SDS011;7095;51.388;6.196;2022-11-15T14:04:22;5.10;;;1.27;;
14040;SDS011;7095;51.388;6.196;2022-11-15T14:06:55;2.73;;;0.93;;
14040;SDS011;7095;51.388;6.196;2022-11-15T14:09:30;6.03;;;1.70;;
14040;SDS011;7095;51.388;6.196;2022-11-15T14:12:01;2.43;;;1.20;;
14040;SDS011;7095;51.388;6.196;2022-11-15T14:14:49;4.83;;;1.10;;
14040;SDS011;7095;51.388;6.196;2022-11-15T14:17:19;1.57;;;0.80;;
14040;SDS011;7095;51.388;6.196;2022-11-15T14:20:00;5.43;;;1.00;;
14040;SDS011;7095;51.388;6.196;2022-11-15T14:22:31;4.17;;;1.10;;
14040;SDS011;7095;51.388;6.196;2022-11-15T14:25:05;2.97;;;0.97;;
14040;SDS011;7095;51.388;6.196;2022-11-15T14:27:42;5.90;;;1.50;;
14040;SDS011;7095;51.388;6.196;2022-11-15T14:30:13;3.00;;;0.80;;
14040;SDS011;7095;51.388;6.196;2022-11-15T14:32:43;2.07;;;1.20;;
14040;SDS011;7095;51.388;6.196;2022-11-15T14:35:15;4.23;;;1.30;;
14040;SDS011;7095;51.388;6.196;2022-11-15T14:37:47;5.33;;;1.70;;
14040;SDS011;7095;51.388;6.196;2022-11-15T14:40:18;6.37;;;1.30;;
14040;SDS011;7095;51.388;6.196;2022-11-15T14:42:48;6.20;;;1.77;;
14040;SDS011;7095;51.388;6.196;2022-11-15T14:45:19;8.33;;;1.00;;
14040;SDS011;7095;51.388;6.196;2022-11-15T14:47:50;3.97;;;1.70;;
14040;SDS011;7095;51.388;6.196;2022-11-15T14:50:20;4.00;;;1.20;;
14040;SDS011;7095;51.388;6.196;2022-11-15T14:52:51;5.20;;;1.37;;
14040;SDS011;7095;51.388;6.196;2022-11-15T14:55:21;10.50;;;1.53;;
14040;SDS011;7095;51.388;6.196;2022-11-15T14:57:52;4.67;;;1.20;;
14040;SDS011;7095;51.388;6.196;2022-11-15T15:00:21;3.70;;;1.40;;
14040;SDS011;7095;51.388;6.196;2022-11-15T15:02:58;4.40;;;1.40;;
14040;SDS011;7095;51.388;6.196;2022-11-15T15:05:29;7.67;;;1.27;;
14040;SDS011;7095;51.388;6.196;2022-11-15T15:08:02;7.27;;;1.37;;
14040;SDS011;7095;51.388;6.196;2022-11-15T15:10:31;4.23;;;1.70;;
14040;SDS011;7095;51.388;6.196;2022-11-15T15:13:10;7.33;;;1.23;;
14040;SDS011;7095;51.388;6.196;2022-11-15T15:15:44;2.97;;;1.20;;
14040;SDS011;7095;51.388;6.196;2022-11-15T15:18:14;5.37;;;1.10;;
14040;SDS011;7095;51.388;6.196;2022-11-15T15:20:48;3.63;;;1.40;;
14040;SDS011;7095;51.388;6.196;2022-11-15T15:23:26;5.00;;;1.67;;
14040;SDS011;7095;51.388;6.196;2022-11-15T15:25:58;4.00;;;1.33;;
14040;SDS011;7095;51.388;6.196;2022-11-15T15:28:27;2.63;;;1.63;;
14040;SDS011;7095;51.388;6.196;2022-11-15T15:31:00;4.93;;;1.23;;
14040;SDS011;7095;51.388;6.196;2022-11-15T15:33:29;2.10;;;1.43;;
14040;SDS011;7095;51.388;6.196;2022-11-15T15:35:58;9.03;;;1.87;;
14040;SDS011;7095;51.388;6.196;2022-11-15T15:38:29;5.77;;;1.60;;
14040;SDS011;7095;51.388;6.196;2022-11-15T15:41:00;8.93;;;2.43;;
14040;SDS011;7095;51.388;6.196;2022-11-15T15:43:30;2.23;;;1.93;;
14040;SDS011;7095;51.388;6.196;2022-11-15T15:46:00;3.87;;;1.60;;
14040;SDS011;7095;51.388;6.196;2022-11-15T15:48:30;4.53;;;2.13;;
14040;SDS011;7095;51.388;6.196;2022-11-15T15:51:01;3.67;;;1.43;;
14040;SDS011;7095;51.388;6.196;2022-11-15T15:53:41;4.23;;;2.40;;
14040;SDS011;7095;51.388;6.196;2022-11-15T15:56:10;3.40;;;2.13;;
14040;SDS011;7095;51.388;6.196;2022-11-15T15:58:39;2.83;;;2.13;;
14040;SDS011;7095;51.388;6.196;2022-11-15T16:01:08;5.03;;;2.57;;
14040;SDS011;7095;51.388;6.196;2022-11-15T16:03:37;5.60;;;2.70;;
14040;SDS011;7095;51.388;6.196;2022-11-15T16:09:03;5.53;;;3.03;;
14040;SDS011;7095;51.388;6.196;2022-11-15T16:11:42;6.83;;;2.90;;
14040;SDS011;7095;51.388;6.196;2022-11-15T16:14:13;5.80;;;3.20;;
14040;SDS011;7095;51.388;6.196;2022-11-15T16:16:42;11.00;;;3.40;;
14040;SDS011;7095;51.388;6.196;2022-11-15T16:19:11;6.03;;;2.73;;
14040;SDS011;7095;51.388;6.196;2022-11-15T16:21:40;6.00;;;3.17;;
14040;SDS011;7095;51.388;6.196;2022-11-15T16:24:10;5.97;;;2.87;;
14040;SDS011;7095;51.388;6.196;2022-11-15T16:26:40;9.83;;;2.90;;
14040;SDS011;7095;51.388;6.196;2022-11-15T16:29:10;6.30;;;3.10;;
14040;SDS011;7095;51.388;6.196;2022-11-15T16:31:39;9.60;;;4.20;;
14040;SDS011;7095;51.388;6.196;2022-11-15T16:34:09;5.67;;;3.23;;
14040;SDS011;7095;51.388;6.196;2022-11-15T16:36:38;4.90;;;3.23;;
14040;SDS011;7095;51.388;6.196;2022-11-15T16:39:09;8.87;;;3.77;;
14040;SDS011;7095;51.388;6.196;2022-11-15T16:41:40;6.07;;;3.03;;
14040;SDS011;7095;51.388;6.196;2022-11-15T16:44:10;6.23;;;3.67;;
14040;SDS011;7095;51.388;6.196;2022-11-15T16:46:40;6.40;;;3.83;;
14040;SDS011;7095;51.388;6.196;2022-11-15T16:49:10;4.53;;;3.47;;
14040;SDS011;7095;51.388;6.196;2022-11-15T16:51:42;5.73;;;4.00;;
14040;SDS011;7095;51.388;6.196;2022-11-15T16:54:14;6.97;;;4.20;;
14040;SDS011;7095;51.388;6.196;2022-11-15T16:56:43;5.40;;;3.63;;